sensor_id;sensor_type;location;lat;lon;timestamp;P1;durP1;ratioP1;P2;durP2;ratioP2
11711;SDS011;5912;51.034;6.984;2023-11-19T00:00:05;1.85;;;1.33;;
11711;SDS011;5912;51.034;6.984;2023-11-19T00:02:37;1.95;;;1.70;;
11711;SDS011;5912;51.034;6.984;2023-11-19T00:05:06;2.13;;;1.45;;
11711;SDS011;5912;51.034;6.984;2023-11-19T00:07:34;1.92;;;1.55;;
11711;SDS011;5912;51.034;6.984;2023-11-19T00:10:00;4.15;;;1.85;;
11711;SDS011;5912;51.034;6.984;2023-11-19T00:12:29;1.70;;;1.40;;
11711;SDS011;5912;51.034;6.984;2023-11-19T00:14:54;1.63;;;1.38;;
11711;SDS011;5912;51.034;6.984;2023-11-19T00:17:19;1.52;;;1.42;;
11711;SDS011;5912;51.034;6.984;2023-11-19T00:19:45;1.92;;;1.40;;
11711;SDS011;5912;51.034;6.984;2023-11-19T00:22:11;2.15;;;1.40;;
11711;SDS011;5912;51.034;6.984;2023-11-19T00:24:36;1.52;;;1.33;;
11711;SDS011;5912;51.034;6.984;2023-11-19T00:27:02;1.75;;;1.27;;
11711;SDS011;5912;51.034;6.984;2023-11-19T00:29:27;1.42;;;1.30;;
11711;SDS011;5912;51.034;6.984;2023-11-19T00:31:52;1.33;;;1.00;;
11711;SDS011;5912;51.034;6.984;2023-11-19T00:34:18;4.30;;;2.42;;
11711;SDS011;5912;51.034;6.984;2023-11-19T00:36:46;6.40;;;3.42;;
11711;SDS011;5912;51.034;6.984;2023-11-19T00:39:11;5.07;;;2.83;;
11711;SDS011;5912;51.034;6.984;2023-11-19T00:41:39;3.70;;;2.00;;
11711;SDS011;5912;51.034;6.984;2023-11-19T00:44:05;3.08;;;2.20;;
11711;SDS011;5912;51.034;6.984;2023-11-19T00:46:30;3.22;;;2.00;;
11711;SDS011;5912;51.034;6.984;2023-11-19T00:48:57;3.25;;;1.88;;
11711;SDS011;5912;51.034;6.984;2023-11-19T00:51:24;3.60;;;1.60;;
11711;SDS011;5912;51.034;6.984;2023-11-19T00:53:51;3.20;;;2.00;;
11711;SDS011;5912;51.034;6.984;2023-11-19T00:56:17;3.08;;;1.80;;
11711;SDS011;5912;51.034;6.984;2023-11-19T00:58:44;2.95;;;1.70;;
11711;SDS011;5912;51.034;6.984;2023-11-19T01:01:11;3.75;;;1.50;;
11711;SDS011;5912;51.034;6.984;2023-11-19T01:03:36;3.90;;;1.60;;
11711;SDS011;5912;51.034;6.984;2023-11-19T01:06:02;2.47;;;1.52;;
11711;SDS011;5912;51.034;6.984;2023-11-19T01:08:31;2.38;;;1.65;;
11711;SDS011;5912;51.034;6.984;2023-11-19T01:10:57;2.30;;;1.77;;
11711;SDS011;5912;51.034;6.984;2023-11-19T01:13:22;3.10;;;1.80;;
11711;SDS011;5912;51.034;6.984;2023-11-19T01:15:47;2.67;;;1.67;;
11711;SDS011;5912;51.034;6.984;2023-11-19T01:18:13;3.83;;;2.10;;
11711;SDS011;5912;51.034;6.984;2023-11-19T01:20:38;3.20;;;1.70;;
11711;SDS011;5912;51.034;6.984;2023-11-19T01:23:04;2.78;;;1.67;;
11711;SDS011;5912;51.034;6.984;2023-11-19T01:25:29;3.15;;;1.50;;
11711;SDS011;5912;51.034;6.984;2023-11-19T01:27:54;2.63;;;1.70;;
11711;SDS011;5912;51.034;6.984;2023-11-19T01:30:22;3.67;;;2.17;;
11711;SDS011;5912;51.034;6.984;2023-11-19T01:32:47;2.72;;;1.73;;
11711;SDS011;5912;51.034;6.984;2023-11-19T01:35:13;4.15;;;2.13;;
11711;SDS011;5912;51.034;6.984;2023-11-19T01:37:38;5.65;;;2.28;;
11711;SDS011;5912;51.034;6.984;2023-11-19T01:40:03;4.07;;;2.45;;
11711;SDS011;5912;51.034;6.984;2023-11-19T01:42:35;3.13;;;1.80;;
11711;SDS011;5912;51.034;6.984;2023-11-19T01:45:02;2.50;;;1.83;;
11711;SDS011;5912;51.034;6.984;2023-11-19T01:47:28;4.93;;;2.10;;
11711;SDS011;5912;51.034;6.984;2023-11-19T01:49:55;2.63;;;1.80;;
11711;SDS011;5912;51.034;6.984;2023-11-19T01:52:21;3.47;;;2.10;;
11711;SDS011;5912;51.034;6.984;2023-11-19T01:54:47;2.70;;;2.20;;
11711;SDS011;5912;51.034;6.984;2023-11-19T01:57:13;3.58;;;2.15;;
11711;SDS011;5912;51.034;6.984;2023-11-19T01:59:39;4.35;;;2.55;;
11711;SDS011;5912;51.034;6.984;2023-11-19T02:02:06;5.78;;;2.50;;
11711;SDS011;5912;51.034;6.984;2023-11-19T02:04:31;5.45;;;2.40;;
11711;SDS011;5912;51.034;6.984;2023-11-19T02:06:58;3.63;;;1.98;;
11711;SDS011;5912;51.034;6.984;2023-11-19T02:09:24;2.90;;;1.75;;
11711;SDS011;5912;51.034;6.984;2023-11-19T02:11:49;3.35;;;1.30;;
11711;SDS011;5912;51.034;6.984;2023-11-19T02:14:17;1.60;;;0.90;;
11711;SDS011;5912;51.034;6.984;2023-11-19T02:16:43;4.43;;;1.27;;
11711;SDS011;5912;51.034;6.984;2023-11-19T02:19:08;3.05;;;1.17;;
11711;SDS011;5912;51.034;6.984;2023-11-19T02:21:35;1.05;;;0.95;;
11711;SDS011;5912;51.034;6.984;2023-11-19T02:24:02;2.35;;;1.25;;
11711;SDS011;5912;51.034;6.984;2023-11-19T02:28:57;2.63;;;1.23;;
11711;SDS011;5912;51.034;6.984;2023-11-19T02:31:23;4.22;;;1.50;;
11711;SDS011;5912;51.034;6.984;2023-11-19T02:33:48;4.00;;;1.23;;
11711;SDS011;5912;51.034;6.984;2023-11-19T02:36:15;2.50;;;1.20;;
11711;SDS011;5912;51.034;6.984;2023-11-19T02:38:41;4.50;;;1.30;;
11711;SDS011;5912;51.034;6.984;2023-11-19T02:41:07;4.97;;;1.60;;
11711;SDS011;5912;51.034;6.984;2023-11-19T02:43:32;6.55;;;1.65;;
11711;SDS011;5912;51.034;6.984;2023-11-19T02:46:01;2.63;;;1.23;;
11711;SDS011;5912;51.034;6.984;2023-11-19T02:48:34;5.07;;;1.33;;
11711;SDS011;5912;51.034;6.984;2023-11-19T02:51:03;4.88;;;1.65;;
11711;SDS011;5912;51.034;6.984;2023-11-19T02:53:29;4.50;;;1.40;;
11711;SDS011;5912;51.034;6.984;2023-11-19T02:55:55;3.85;;;1.20;;
11711;SDS011;5912;51.034;6.984;2023-11-19T02:58:26;4.82;;;1.23;;
11711;SDS011;5912;51.034;6.984;2023-11-19T03:00:53;2.42;;;1.35;;
11711;SDS011;5912;51.034;6.984;2023-11-19T03:03:23;4.65;;;1.38;;
11711;SDS011;5912;51.034;6.984;2023-11-19T03:05:53;7.32;;;1.67;;
11711;SDS011;5912;51.034;6.984;2023-11-19T03:08:20;3.30;;;1.27;;
11711;SDS011;5912;51.034;6.984;2023-11-19T03:10:45;5.80;;;1.40;;
11711;SDS011;5912;51.034;6.984;2023-11-19T03:13:11;7.60;;;1.80;;
11711;SDS011;5912;51.034;6.984;2023-11-19T03:15:39;4.25;;;1.30;;
11711;SDS011;5912;51.034;6.984;2023-11-19T03:18:04;8.32;;;1.77;;
11711;SDS011;5912;51.034;6.984;2023-11-19T03:20:30;3.92;;;1.65;;
11711;SDS011;5912;51.034;6.984;2023-11-19T03:22:55;4.13;;;1.45;;
11711;SDS011;5912;51.034;6.984;2023-11-19T03:25:22;4.80;;;1.67;;
11711;SDS011;5912;51.034;6.984;2023-11-19T03:27:51;5.15;;;1.50;;
11711;SDS011;5912;51.034;6.984;2023-11-19T03:30:18;3.53;;;1.55;;
11711;SDS011;5912;51.034;6.984;2023-11-19T03:32:43;4.05;;;1.35;;
11711;SDS011;5912;51.034;6.984;2023-11-19T03:35:09;4.35;;;1.73;;
11711;SDS011;5912;51.034;6.984;2023-11-19T03:37:34;5.75;;;1.80;;
11711;SDS011;5912;51.034;6.984;2023-11-19T03:40:00;5.07;;;1.75;;
11711;SDS011;5912;51.034;6.984;2023-11-19T03:42:26;9.07;;;1.60;;
11711;SDS011;5912;51.034;6.984;2023-11-19T03:44:52;8.63;;;1.77;;
11711;SDS011;5912;51.034;6.984;2023-11-19T03:47:18;9.10;;;2.15;;
11711;SDS011;5912;51.034;6.984;2023-11-19T03:49:47;12.82;;;2.58;;
11711;SDS011;5912;51.034;6.984;2023-11-19T03:52:16;9.38;;;1.88;;
11711;SDS011;5912;51.034;6.984;2023-11-19T03:54:42;9.13;;;2.08;;
11711;SDS011;5912;51.034;6.984;2023-11-19T03:57:08;8.63;;;1.83;;
11711;SDS011;5912;51.034;6.984;2023-11-19T03:59:35;6.38;;;1.80;;
11711;SDS011;5912;51.034;6.984;2023-11-19T04:02:01;6.78;;;1.73;;
11711;SDS011;5912;51.034;6.984;2023-11-19T04:04:27;7.63;;;2.00;;
11711;SDS011;5912;51.034;6.984;2023-11-19T04:06:53;10.30;;;2.08;;
11711;SDS011;5912;51.034;6.984;2023-11-19T04:09:18;7.72;;;1.90;;
11711;SDS011;5912;51.034;6.984;2023-11-19T04:11:44;9.13;;;2.33;;
11711;SDS011;5912;51.034;6.984;2023-11-19T04:14:11;7.45;;;2.17;;
11711;SDS011;5912;51.034;6.984;2023-11-19T04:16:38;6.60;;;1.65;;
11711;SDS011;5912;51.034;6.984;2023-11-19T04:19:03;9.30;;;2.15;;
11711;SDS011;5912;51.034;6.984;2023-11-19T04:21:28;6.78;;;2.05;;
11711;SDS011;5912;51.034;6.984;2023-11-19T04:23:54;7.93;;;1.88;;
11711;SDS011;5912;51.034;6.984;2023-11-19T04:26:19;6.93;;;1.88;;
11711;SDS011;5912;51.034;6.984;2023-11-19T04:28:44;5.60;;;1.85;;
11711;SDS011;5912;51.034;6.984;2023-11-19T04:31:10;7.63;;;2.05;;
11711;SDS011;5912;51.034;6.984;2023-11-19T04:33:35;5.20;;;1.60;;
11711;SDS011;5912;51.034;6.984;2023-11-19T04:36:00;7.55;;;2.08;;
11711;SDS011;5912;51.034;6.984;2023-11-19T04:38:25;9.35;;;2.88;;
11711;SDS011;5912;51.034;6.984;2023-11-19T04:40:51;12.10;;;2.33;;
11711;SDS011;5912;51.034;6.984;2023-11-19T04:43:17;6.68;;;2.20;;
11711;SDS011;5912;51.034;6.984;2023-11-19T04:45:42;11.30;;;2.22;;
11711;SDS011;5912;51.034;6.984;2023-11-19T04:48:07;10.88;;;2.60;;
11711;SDS011;5912;51.034;6.984;2023-11-19T04:50:34;9.05;;;2.42;;
11711;SDS011;5912;51.034;6.984;2023-11-19T04:52:59;9.50;;;2.30;;
11711;SDS011;5912;51.034;6.984;2023-11-19T04:55:24;7.05;;;2.25;;
11711;SDS011;5912;51.034;6.984;2023-11-19T04:57:50;12.50;;;2.80;;
11711;SDS011;5912;51.034;6.984;2023-11-19T05:00:15;13.32;;;2.72;;
11711;SDS011;5912;51.034;6.984;2023-11-19T05:02:40;12.52;;;2.63;;
11711;SDS011;5912;51.034;6.984;2023-11-19T05:05:06;14.63;;;2.42;;
11711;SDS011;5912;51.034;6.984;2023-11-19T05:07:31;11.18;;;2.72;;
11711;SDS011;5912;51.034;6.984;2023-11-19T05:09:56;12.68;;;2.40;;
11711;SDS011;5912;51.034;6.984;2023-11-19T05:12:23;10.40;;;2.42;;
11711;SDS011;5912;51.034;6.984;2023-11-19T05:14:48;12.65;;;2.45;;
11711;SDS011;5912;51.034;6.984;2023-11-19T05:17:16;10.57;;;2.53;;
11711;SDS011;5912;51.034;6.984;2023-11-19T05:19:43;13.82;;;2.53;;
11711;SDS011;5912;51.034;6.984;2023-11-19T05:22:08;11.63;;;2.85;;
11711;SDS011;5912;51.034;6.984;2023-11-19T05:24:33;9.30;;;2.30;;
11711;SDS011;5912;51.034;6.984;2023-11-19T05:26:59;10.38;;;2.60;;
11711;SDS011;5912;51.034;6.984;2023-11-19T05:29:24;10.65;;;2.55;;
11711;SDS011;5912;51.034;6.984;2023-11-19T05:31:49;8.88;;;1.85;;
11711;SDS011;5912;51.034;6.984;2023-11-19T05:34:15;7.82;;;1.77;;
11711;SDS011;5912;51.034;6.984;2023-11-19T05:36:40;8.63;;;2.22;;
11711;SDS011;5912;51.034;6.984;2023-11-19T05:39:06;8.07;;;2.00;;
11711;SDS011;5912;51.034;6.984;2023-11-19T05:41:31;15.05;;;2.50;;
11711;SDS011;5912;51.034;6.984;2023-11-19T05:43:56;7.32;;;1.90;;
11711;SDS011;5912;51.034;6.984;2023-11-19T05:46:21;8.90;;;2.17;;
11711;SDS011;5912;51.034;6.984;2023-11-19T05:48:47;9.80;;;2.20;;
11711;SDS011;5912;51.034;6.984;2023-11-19T05:51:13;12.10;;;2.70;;
11711;SDS011;5912;51.034;6.984;2023-11-19T05:53:46;9.35;;;2.20;;
11711;SDS011;5912;51.034;6.984;2023-11-19T05:56:11;11.90;;;2.00;;
11711;SDS011;5912;51.034;6.984;2023-11-19T05:58:37;13.20;;;2.58;;
11711;SDS011;5912;51.034;6.984;2023-11-19T06:01:04;13.25;;;2.35;;
11711;SDS011;5912;51.034;6.984;2023-11-19T06:03:32;10.95;;;2.55;;
11711;SDS011;5912;51.034;6.984;2023-11-19T06:05:58;13.20;;;2.50;;
11711;SDS011;5912;51.034;6.984;2023-11-19T06:08:23;10.48;;;1.95;;
11711;SDS011;5912;51.034;6.984;2023-11-19T06:10:49;14.00;;;2.70;;
11711;SDS011;5912;51.034;6.984;2023-11-19T06:13:16;12.57;;;2.65;;
11711;SDS011;5912;51.034;6.984;2023-11-19T06:15:41;14.98;;;2.70;;
11711;SDS011;5912;51.034;6.984;2023-11-19T06:18:07;13.15;;;2.53;;
11711;SDS011;5912;51.034;6.984;2023-11-19T06:20:33;13.68;;;2.80;;
11711;SDS011;5912;51.034;6.984;2023-11-19T06:22:59;13.60;;;3.10;;
11711;SDS011;5912;51.034;6.984;2023-11-19T06:25:25;11.93;;;2.53;;
11711;SDS011;5912;51.034;6.984;2023-11-19T06:27:50;16.42;;;3.58;;
11711;SDS011;5912;51.034;6.984;2023-11-19T06:30:16;10.63;;;2.45;;
11711;SDS011;5912;51.034;6.984;2023-11-19T06:32:42;15.27;;;2.90;;
11711;SDS011;5912;51.034;6.984;2023-11-19T06:35:07;17.20;;;2.80;;
11711;SDS011;5912;51.034;6.984;2023-11-19T06:37:34;10.73;;;2.67;;
11711;SDS011;5912;51.034;6.984;2023-11-19T06:39:59;16.55;;;2.35;;
11711;SDS011;5912;51.034;6.984;2023-11-19T06:42:25;12.23;;;2.53;;
11711;SDS011;5912;51.034;6.984;2023-11-19T06:44:50;10.77;;;2.65;;
11711;SDS011;5912;51.034;6.984;2023-11-19T06:47:16;12.80;;;2.83;;
11711;SDS011;5912;51.034;6.984;2023-11-19T06:49:43;16.00;;;2.80;;
11711;SDS011;5912;51.034;6.984;2023-11-19T06:52:09;18.15;;;2.83;;
11711;SDS011;5912;51.034;6.984;2023-11-19T06:54:34;19.25;;;2.80;;
11711;SDS011;5912;51.034;6.984;2023-11-19T06:57:00;15.85;;;3.50;;
11711;SDS011;5912;51.034;6.984;2023-11-19T06:59:25;11.45;;;3.17;;
11711;SDS011;5912;51.034;6.984;2023-11-19T07:01:51;12.93;;;2.42;;
11711;SDS011;5912;51.034;6.984;2023-11-19T07:04:16;18.15;;;3.15;;
11711;SDS011;5912;51.034;6.984;2023-11-19T07:06:41;14.45;;;3.05;;
11711;SDS011;5912;51.034;6.984;2023-11-19T07:09:07;12.80;;;2.90;;
11711;SDS011;5912;51.034;6.984;2023-11-19T07:11:38;11.70;;;3.22;;
11711;SDS011;5912;51.034;6.984;2023-11-19T07:14:05;10.95;;;2.38;;
11711;SDS011;5912;51.034;6.984;2023-11-19T07:16:31;15.20;;;3.28;;
11711;SDS011;5912;51.034;6.984;2023-11-19T07:19:02;12.68;;;2.60;;
11711;SDS011;5912;51.034;6.984;2023-11-19T07:21:27;13.77;;;2.92;;
11711;SDS011;5912;51.034;6.984;2023-11-19T07:23:55;13.73;;;2.75;;
11711;SDS011;5912;51.034;6.984;2023-11-19T07:26:21;17.17;;;3.00;;
11711;SDS011;5912;51.034;6.984;2023-11-19T07:28:47;18.23;;;4.20;;
11711;SDS011;5912;51.034;6.984;2023-11-19T07:31:12;13.43;;;2.58;;
11711;SDS011;5912;51.034;6.984;2023-11-19T07:33:39;10.40;;;2.60;;
11711;SDS011;5912;51.034;6.984;2023-11-19T07:36:04;12.18;;;2.75;;
11711;SDS011;5912;51.034;6.984;2023-11-19T07:38:30;10.35;;;2.45;;
11711;SDS011;5912;51.034;6.984;2023-11-19T07:40:56;14.50;;;3.08;;
11711;SDS011;5912;51.034;6.984;2023-11-19T07:43:21;13.13;;;3.00;;
11711;SDS011;5912;51.034;6.984;2023-11-19T07:45:46;15.32;;;2.78;;
11711;SDS011;5912;51.034;6.984;2023-11-19T07:48:11;13.20;;;2.80;;
11711;SDS011;5912;51.034;6.984;2023-11-19T07:50:39;14.80;;;2.90;;
11711;SDS011;5912;51.034;6.984;2023-11-19T07:53:07;10.50;;;2.55;;
11711;SDS011;5912;51.034;6.984;2023-11-19T07:55:33;16.17;;;3.08;;
11711;SDS011;5912;51.034;6.984;2023-11-19T07:57:59;13.32;;;2.92;;
11711;SDS011;5912;51.034;6.984;2023-11-19T08:00:24;14.57;;;3.20;;
11711;SDS011;5912;51.034;6.984;2023-11-19T08:02:49;18.80;;;3.85;;
11711;SDS011;5912;51.034;6.984;2023-11-19T08:05:15;13.35;;;2.20;;
11711;SDS011;5912;51.034;6.984;2023-11-19T08:07:40;16.25;;;2.97;;
11711;SDS011;5912;51.034;6.984;2023-11-19T08:10:06;13.85;;;3.20;;
11711;SDS011;5912;51.034;6.984;2023-11-19T08:12:34;14.38;;;2.88;;
11711;SDS011;5912;51.034;6.984;2023-11-19T08:15:01;13.88;;;3.05;;
11711;SDS011;5912;51.034;6.984;2023-11-19T08:17:30;15.68;;;3.17;;
11711;SDS011;5912;51.034;6.984;2023-11-19T08:19:55;11.15;;;2.63;;
11711;SDS011;5912;51.034;6.984;2023-11-19T08:22:20;16.63;;;2.92;;
11711;SDS011;5912;51.034;6.984;2023-11-19T08:24:47;9.75;;;2.75;;
11711;SDS011;5912;51.034;6.984;2023-11-19T08:27:13;12.60;;;2.90;;
11711;SDS011;5912;51.034;6.984;2023-11-19T08:29:38;16.52;;;3.63;;
11711;SDS011;5912;51.034;6.984;2023-11-19T08:32:03;13.68;;;2.72;;
11711;SDS011;5912;51.034;6.984;2023-11-19T08:34:29;15.05;;;3.17;;
11711;SDS011;5912;51.034;6.984;2023-11-19T08:36:54;12.00;;;2.67;;
11711;SDS011;5912;51.034;6.984;2023-11-19T08:39:20;15.35;;;2.83;;
11711;SDS011;5912;51.034;6.984;2023-11-19T08:41:48;11.48;;;3.17;;
11711;SDS011;5912;51.034;6.984;2023-11-19T08:44:14;10.32;;;2.70;;
11711;SDS011;5912;51.034;6.984;2023-11-19T08:46:45;14.93;;;2.78;;
11711;SDS011;5912;51.034;6.984;2023-11-19T08:49:12;14.13;;;2.75;;
11711;SDS011;5912;51.034;6.984;2023-11-19T08:51:37;12.98;;;3.13;;
11711;SDS011;5912;51.034;6.984;2023-11-19T08:54:03;16.52;;;3.03;;
11711;SDS011;5912;51.034;6.984;2023-11-19T08:56:28;12.75;;;2.92;;
11711;SDS011;5912;51.034;6.984;2023-11-19T08:58:58;17.02;;;3.03;;
11711;SDS011;5912;51.034;6.984;2023-11-19T09:01:23;15.60;;;3.08;;
11711;SDS011;5912;51.034;6.984;2023-11-19T09:03:49;12.13;;;2.80;;
11711;SDS011;5912;51.034;6.984;2023-11-19T09:06:15;15.93;;;3.50;;
11711;SDS011;5912;51.034;6.984;2023-11-19T09:08:41;14.25;;;2.50;;
11711;SDS011;5912;51.034;6.984;2023-11-19T09:11:07;13.48;;;2.42;;
11711;SDS011;5912;51.034;6.984;2023-11-19T09:13:33;18.10;;;4.35;;
11711;SDS011;5912;51.034;6.984;2023-11-19T09:15:59;11.15;;;2.83;;
11711;SDS011;5912;51.034;6.984;2023-11-19T09:18:28;12.75;;;3.22;;
11711;SDS011;5912;51.034;6.984;2023-11-19T09:20:53;12.57;;;2.88;;
11711;SDS011;5912;51.034;6.984;2023-11-19T09:23:19;13.63;;;3.47;;
11711;SDS011;5912;51.034;6.984;2023-11-19T09:25:44;22.20;;;3.28;;
11711;SDS011;5912;51.034;6.984;2023-11-19T09:28:10;13.57;;;3.08;;
11711;SDS011;5912;51.034;6.984;2023-11-19T09:30:35;11.23;;;3.00;;
11711;SDS011;5912;51.034;6.984;2023-11-19T09:33:00;12.43;;;2.88;;
11711;SDS011;5912;51.034;6.984;2023-11-19T09:35:26;13.88;;;2.67;;
11711;SDS011;5912;51.034;6.984;2023-11-19T09:37:51;13.95;;;3.22;;
11711;SDS011;5912;51.034;6.984;2023-11-19T09:40:16;12.57;;;2.95;;
11711;SDS011;5912;51.034;6.984;2023-11-19T09:42:43;13.73;;;2.53;;
11711;SDS011;5912;51.034;6.984;2023-11-19T09:45:13;12.90;;;2.58;;
11711;SDS011;5912;51.034;6.984;2023-11-19T09:47:44;14.00;;;2.63;;
11711;SDS011;5912;51.034;6.984;2023-11-19T09:50:17;17.10;;;3.45;;
11711;SDS011;5912;51.034;6.984;2023-11-19T09:52:59;11.65;;;2.92;;
11711;SDS011;5912;51.034;6.984;2023-11-19T09:55:24;17.95;;;3.25;;
11711;SDS011;5912;51.034;6.984;2023-11-19T09:57:49;11.43;;;2.72;;
11711;SDS011;5912;51.034;6.984;2023-11-19T10:00:17;13.50;;;3.42;;
11711;SDS011;5912;51.034;6.984;2023-11-19T10:02:46;14.23;;;3.60;;
11711;SDS011;5912;51.034;6.984;2023-11-19T10:05:12;14.68;;;2.85;;
11711;SDS011;5912;51.034;6.984;2023-11-19T10:07:39;18.20;;;3.08;;
11711;SDS011;5912;51.034;6.984;2023-11-19T10:10:05;14.48;;;2.80;;
11711;SDS011;5912;51.034;6.984;2023-11-19T10:12:30;16.48;;;2.83;;
11711;SDS011;5912;51.034;6.984;2023-11-19T10:14:56;18.02;;;3.53;;
11711;SDS011;5912;51.034;6.984;2023-11-19T10:17:28;14.30;;;2.80;;
11711;SDS011;5912;51.034;6.984;2023-11-19T10:19:57;19.08;;;3.53;;
11711;SDS011;5912;51.034;6.984;2023-11-19T10:22:22;12.38;;;2.90;;
11711;SDS011;5912;51.034;6.984;2023-11-19T10:24:49;15.13;;;3.63;;
11711;SDS011;5912;51.034;6.984;2023-11-19T10:27:14;12.00;;;3.08;;
11711;SDS011;5912;51.034;6.984;2023-11-19T10:29:40;10.80;;;2.70;;
11711;SDS011;5912;51.034;6.984;2023-11-19T10:32:09;15.07;;;3.05;;
11711;SDS011;5912;51.034;6.984;2023-11-19T10:34:34;16.30;;;3.25;;
11711;SDS011;5912;51.034;6.984;2023-11-19T10:37:02;15.55;;;2.83;;
11711;SDS011;5912;51.034;6.984;2023-11-19T10:40:10;16.73;;;2.88;;
11711;SDS011;5912;51.034;6.984;2023-11-19T10:42:20;13.07;;;2.70;;
11711;SDS011;5912;51.034;6.984;2023-11-19T10:44:46;15.50;;;3.72;;
11711;SDS011;5912;51.034;6.984;2023-11-19T10:47:12;14.05;;;3.10;;
11711;SDS011;5912;51.034;6.984;2023-11-19T10:49:39;17.17;;;2.70;;
11711;SDS011;5912;51.034;6.984;2023-11-19T10:52:05;13.55;;;2.80;;
11711;SDS011;5912;51.034;6.984;2023-11-19T10:54:34;13.25;;;2.85;;
11711;SDS011;5912;51.034;6.984;2023-11-19T10:57:00;16.05;;;2.63;;
11711;SDS011;5912;51.034;6.984;2023-11-19T10:59:30;15.85;;;3.47;;
11711;SDS011;5912;51.034;6.984;2023-11-19T11:02:00;13.93;;;3.17;;
11711;SDS011;5912;51.034;6.984;2023-11-19T11:04:31;16.42;;;3.30;;
11711;SDS011;5912;51.034;6.984;2023-11-19T11:07:02;14.32;;;2.95;;
11711;SDS011;5912;51.034;6.984;2023-11-19T11:09:29;15.38;;;2.70;;
11711;SDS011;5912;51.034;6.984;2023-11-19T11:11:55;18.05;;;3.15;;
11711;SDS011;5912;51.034;6.984;2023-11-19T11:14:22;12.10;;;3.00;;
11711;SDS011;5912;51.034;6.984;2023-11-19T11:16:49;13.38;;;2.55;;
11711;SDS011;5912;51.034;6.984;2023-11-19T11:19:15;16.90;;;3.13;;
11711;SDS011;5912;51.034;6.984;2023-11-19T11:21:42;14.48;;;2.90;;
11711;SDS011;5912;51.034;6.984;2023-11-19T11:27:17;11.70;;;2.63;;
11711;SDS011;5912;51.034;6.984;2023-11-19T11:32:51;9.38;;;2.47;;
11711;SDS011;5912;51.034;6.984;2023-11-19T11:35:34;9.95;;;2.47;;
11711;SDS011;5912;51.034;6.984;2023-11-19T11:38:03;9.30;;;1.92;;
11711;SDS011;5912;51.034;6.984;2023-11-19T11:40:31;13.32;;;2.58;;
11711;SDS011;5912;51.034;6.984;2023-11-19T11:49:03;15.23;;;3.10;;
11711;SDS011;5912;51.034;6.984;2023-11-19T11:54:10;9.70;;;2.55;;
11711;SDS011;5912;51.034;6.984;2023-11-19T11:56:39;8.25;;;2.22;;
11711;SDS011;5912;51.034;6.984;2023-11-19T11:59:07;11.45;;;3.03;;
11711;SDS011;5912;51.034;6.984;2023-11-19T12:01:57;7.75;;;2.17;;
11711;SDS011;5912;51.034;6.984;2023-11-19T12:04:28;10.40;;;2.15;;
11711;SDS011;5912;51.034;6.984;2023-11-19T12:09:38;11.27;;;2.35;;
11711;SDS011;5912;51.034;6.984;2023-11-19T12:20:02;9.50;;;2.47;;
11711;SDS011;5912;51.034;6.984;2023-11-19T12:22:31;9.45;;;2.22;;
11711;SDS011;5912;51.034;6.984;2023-11-19T12:24:56;9.27;;;2.30;;
11711;SDS011;5912;51.034;6.984;2023-11-19T12:27:22;8.60;;;2.03;;
11711;SDS011;5912;51.034;6.984;2023-11-19T12:29:48;6.68;;;2.47;;
11711;SDS011;5912;51.034;6.984;2023-11-19T12:32:14;10.75;;;2.20;;
11711;SDS011;5912;51.034;6.984;2023-11-19T12:34:39;12.02;;;2.35;;
11711;SDS011;5912;51.034;6.984;2023-11-19T12:37:05;9.75;;;2.50;;
11711;SDS011;5912;51.034;6.984;2023-11-19T12:39:30;10.30;;;2.10;;
11711;SDS011;5912;51.034;6.984;2023-11-19T12:41:56;15.32;;;2.25;;
11711;SDS011;5912;51.034;6.984;2023-11-19T12:44:24;7.60;;;1.92;;
11711;SDS011;5912;51.034;6.984;2023-11-19T12:47:06;12.85;;;2.28;;
11711;SDS011;5912;51.034;6.984;2023-11-19T12:49:32;10.75;;;2.70;;
11711;SDS011;5912;51.034;6.984;2023-11-19T12:51:58;9.95;;;2.67;;
11711;SDS011;5912;51.034;6.984;2023-11-19T12:57:43;8.95;;;2.72;;
11711;SDS011;5912;51.034;6.984;2023-11-19T13:00:18;10.52;;;2.28;;
11711;SDS011;5912;51.034;6.984;2023-11-19T13:02:50;9.85;;;2.47;;
11711;SDS011;5912;51.034;6.984;2023-11-19T13:07:46;13.48;;;2.75;;
11711;SDS011;5912;51.034;6.984;2023-11-19T13:10:11;5.63;;;2.08;;
11711;SDS011;5912;51.034;6.984;2023-11-19T13:12:36;10.60;;;2.45;;
11711;SDS011;5912;51.034;6.984;2023-11-19T13:15:02;8.25;;;1.85;;
11711;SDS011;5912;51.034;6.984;2023-11-19T13:17:27;8.82;;;2.30;;
11711;SDS011;5912;51.034;6.984;2023-11-19T13:19:52;8.82;;;2.90;;
11711;SDS011;5912;51.034;6.984;2023-11-19T13:22:18;9.48;;;2.30;;
11711;SDS011;5912;51.034;6.984;2023-11-19T13:24:43;11.65;;;2.47;;
11711;SDS011;5912;51.034;6.984;2023-11-19T13:27:08;8.43;;;1.95;;
11711;SDS011;5912;51.034;6.984;2023-11-19T13:29:34;11.13;;;2.55;;
11711;SDS011;5912;51.034;6.984;2023-11-19T13:32:00;12.27;;;4.07;;
11711;SDS011;5912;51.034;6.984;2023-11-19T13:34:25;11.05;;;2.80;;
11711;SDS011;5912;51.034;6.984;2023-11-19T13:36:50;10.45;;;2.35;;
11711;SDS011;5912;51.034;6.984;2023-11-19T13:39:16;9.52;;;2.10;;
11711;SDS011;5912;51.034;6.984;2023-11-19T13:41:47;12.05;;;2.40;;
11711;SDS011;5912;51.034;6.984;2023-11-19T13:44:13;12.10;;;2.55;;
11711;SDS011;5912;51.034;6.984;2023-11-19T13:46:38;12.70;;;2.70;;
11711;SDS011;5912;51.034;6.984;2023-11-19T13:49:04;10.63;;;2.35;;
11711;SDS011;5912;51.034;6.984;2023-11-19T13:51:29;12.70;;;2.33;;
11711;SDS011;5912;51.034;6.984;2023-11-19T13:53:54;13.52;;;2.50;;
11711;SDS011;5912;51.034;6.984;2023-11-19T13:56:20;7.03;;;2.45;;
11711;SDS011;5912;51.034;6.984;2023-11-19T13:58:45;8.18;;;2.42;;
11711;SDS011;5912;51.034;6.984;2023-11-19T14:01:10;11.50;;;2.67;;
11711;SDS011;5912;51.034;6.984;2023-11-19T14:03:43;7.60;;;2.65;;
11711;SDS011;5912;51.034;6.984;2023-11-19T14:06:08;11.77;;;2.70;;
11711;SDS011;5912;51.034;6.984;2023-11-19T14:08:33;11.38;;;2.67;;
11711;SDS011;5912;51.034;6.984;2023-11-19T14:10:59;13.57;;;3.13;;
11711;SDS011;5912;51.034;6.984;2023-11-19T14:13:24;12.50;;;2.40;;
11711;SDS011;5912;51.034;6.984;2023-11-19T14:15:50;11.32;;;2.85;;
11711;SDS011;5912;51.034;6.984;2023-11-19T14:18:16;9.40;;;2.03;;
11711;SDS011;5912;51.034;6.984;2023-11-19T14:20:42;11.45;;;3.08;;
11711;SDS011;5912;51.034;6.984;2023-11-19T14:23:07;10.55;;;2.85;;
11711;SDS011;5912;51.034;6.984;2023-11-19T14:25:34;10.63;;;2.40;;
11711;SDS011;5912;51.034;6.984;2023-11-19T14:27:59;9.68;;;2.33;;
11711;SDS011;5912;51.034;6.984;2023-11-19T14:30:24;8.57;;;2.33;;
11711;SDS011;5912;51.034;6.984;2023-11-19T14:32:49;10.95;;;2.20;;
11711;SDS011;5912;51.034;6.984;2023-11-19T14:35:15;8.02;;;2.50;;
11711;SDS011;5912;51.034;6.984;2023-11-19T14:37:40;11.98;;;2.28;;
11711;SDS011;5912;51.034;6.984;2023-11-19T14:40:06;7.18;;;1.98;;
11711;SDS011;5912;51.034;6.984;2023-11-19T14:42:34;12.48;;;2.50;;
11711;SDS011;5912;51.034;6.984;2023-11-19T14:45:00;7.93;;;2.22;;
11711;SDS011;5912;51.034;6.984;2023-11-19T14:47:25;8.45;;;2.20;;
11711;SDS011;5912;51.034;6.984;2023-11-19T14:49:51;8.73;;;2.28;;
11711;SDS011;5912;51.034;6.984;2023-11-19T14:52:16;11.70;;;2.40;;
11711;SDS011;5912;51.034;6.984;2023-11-19T14:54:42;8.73;;;1.92;;
11711;SDS011;5912;51.034;6.984;2023-11-19T14:57:10;10.13;;;2.22;;
11711;SDS011;5912;51.034;6.984;2023-11-19T14:59:35;9.60;;;2.22;;
11711;SDS011;5912;51.034;6.984;2023-11-19T15:02:02;7.72;;;2.20;;
11711;SDS011;5912;51.034;6.984;2023-11-19T15:04:27;14.57;;;2.20;;
11711;SDS011;5912;51.034;6.984;2023-11-19T15:06:56;7.95;;;2.20;;
11711;SDS011;5912;51.034;6.984;2023-11-19T15:09:21;11.32;;;2.45;;
11711;SDS011;5912;51.034;6.984;2023-11-19T15:11:47;9.98;;;2.10;;
11711;SDS011;5912;51.034;6.984;2023-11-19T15:14:12;12.77;;;1.98;;
11711;SDS011;5912;51.034;6.984;2023-11-19T15:16:42;11.05;;;2.20;;
11711;SDS011;5912;51.034;6.984;2023-11-19T15:19:08;10.02;;;2.20;;
11711;SDS011;5912;51.034;6.984;2023-11-19T15:21:33;8.48;;;2.70;;